Time;durP1;ratioP1;P1;durP2;ratioP2;P2;SDS_P1;SDS_P2;PMS_P1;PMS_P2;Temp;Humidity;BMP_temperature;BMP_pressure;BME280_temperature;BME280_humidity;BME280_pressure;Samples;Min_cycle;Max_cycle;Signal;HPM_P1;HPM_P2
2021/08/07 00:00:23;;;;;;;12.05;3.45;;;17.50;99.90;;;;;;5094948;28;20446;-80
2021/08/07 00:02:49;;;;;;;10.57;3.28;;;17.50;99.90;;;;;;5090782;28;20051;-81
2021/08/07 00:05:14;;;;;;;10.57;3.97;;;17.50;99.90;;;;;;5077713;28;20031;-81
2021/08/07 00:07:41;;;;;;;11.90;3.55;;;17.50;99.90;;;;;;5115016;28;20036;-88
2021/08/07 00:10:07;;;;;;;13.07;3.90;;;17.40;99.90;;;;;;5096954;28;20395;-87
2021/08/07 00:12:34;;;;;;;11.05;4.22;;;17.40;99.90;;;;;;5115262;28;20083;-87
2021/08/07 00:15:00;;;;;;;11.60;3.33;;;17.40;99.90;;;;;;5078532;28;20074;-88
2021/08/07 00:17:29;;;;;;;10.25;3.30;;;17.40;99.90;;;;;;5114919;28;20031;-87
2021/08/07 00:19:57;;;;;;;16.80;3.45;;;17.40;99.90;;;;;;5094768;28;20056;-87
2021/08/07 00:22:23;;;;;;;11.07;3.40;;;17.60;99.90;;;;;;5093876;28;20023;-87
2021/08/07 00:24:49;;;;;;;11.05;3.60;;;17.40;99.90;;;;;;5097010;28;20445;-87
2021/08/07 00:27:15;;;;;;;11.05;3.58;;;17.40;99.90;;;;;;5082489;28;20078;-87
2021/08/07 00:29:44;;;;;;;11.45;3.65;;;17.40;99.90;;;;;;5076747;28;20028;-87
2021/08/07 00:32:10;;;;;;;10.00;3.63;;;17.50;99.90;;;;;;5085250;28;20049;-87
2021/08/07 00:34:36;;;;;;;8.00;3.17;;;17.50;99.90;;;;;;5084021;28;20043;-87
2021/08/07 00:37:05;;;;;;;11.27;3.28;;;17.50;99.90;;;;;;5111546;28;20036;-87
2021/08/07 00:39:31;;;;;;;10.13;3.10;;;17.50;99.90;;;;;;5076438;28;20059;-87
2021/08/07 00:41:57;;;;;;;13.98;4.05;;;17.50;99.90;;;;;;5066592;28;20035;-88
2021/08/07 00:44:23;;;;;;;10.25;3.00;;;17.50;99.90;;;;;;5096272;28;20042;-88
2021/08/07 00:46:52;;;;;;;15.07;3.50;;;17.50;99.90;;;;;;5096091;28;20476;-88
2021/08/07 00:49:18;;;;;;;13.30;3.67;;;17.50;99.90;;;;;;5112755;28;20028;-87
2021/08/07 00:51:45;;;;;;;12.10;3.58;;;17.40;99.90;;;;;;5114889;28;20078;-88
2021/08/07 00:54:13;;;;;;;10.80;3.38;;;17.50;99.90;;;;;;5078866;28;20063;-88
2021/08/07 00:56:43;;;;;;;10.63;3.60;;;17.50;99.90;;;;;;5057701;28;20043;-87
2021/08/07 00:59:09;;;;;;;10.65;3.55;;;17.40;99.90;;;;;;5096297;28;20035;-88
2021/08/07 01:01:45;;;;;;;11.15;3.45;;;17.40;99.90;;;;;;5059641;28;20046;-88
2021/08/07 01:04:21;;;;;;;13.07;3.75;;;17.40;99.90;;;;;;5083499;28;20487;-88
2021/08/07 01:07:03;;;;;;;13.65;3.70;;;17.40;99.90;;;;;;5091631;28;20043;-88
2021/08/07 01:09:39;;;;;;;11.60;3.75;;;17.40;99.90;;;;;;5096180;28;20027;-88
2021/08/07 01:12:26;;;;;;;9.98;4.00;;;17.40;99.90;;;;;;5109165;28;20111;-88
2021/08/07 01:14:56;;;;;;;11.88;3.55;;;17.40;99.90;;;;;;5090926;28;20055;-87
2021/08/07 01:17:27;;;;;;;9.25;3.30;;;17.40;99.90;;;;;;5093187;28;20046;-87
2021/08/07 01:20:13;;;;;;;9.20;3.38;;;17.40;99.90;;;;;;5094327;28;20035;-87
2021/08/07 01:23:15;;;;;;;9.43;3.78;;;17.40;99.90;;;;;;5081171;28;20044;-87
2021/08/07 01:25:53;;;;;;;15.80;4.40;;;17.40;99.90;;;;;;5093264;28;20031;-87
2021/08/07 01:28:21;;;;;;;10.38;3.65;;;17.30;99.90;;;;;;5085576;28;20043;-88
2021/08/07 01:30:49;;;;;;;11.98;4.10;;;17.30;99.90;;;;;;5073082;28;20044;-87
2021/08/07 01:33:17;;;;;;;9.73;3.78;;;17.30;99.90;;;;;;5075277;28;20126;-88
2021/08/07 01:35:43;;;;;;;12.38;3.97;;;17.30;99.90;;;;;;5091712;28;20036;-80
2021/08/07 01:38:10;;;;;;;12.02;3.85;;;17.30;99.90;;;;;;5076889;28;20040;-81
2021/08/07 01:40:38;;;;;;;8.57;3.67;;;17.30;99.90;;;;;;5091179;28;20043;-81
2021/08/07 01:43:04;;;;;;;10.57;3.75;;;17.30;99.90;;;;;;5095213;28;20042;-81
2021/08/07 01:45:31;;;;;;;8.20;3.63;;;17.30;99.90;;;;;;5087801;28;20024;-80
2021/08/07 01:48:08;;;;;;;11.50;3.50;;;17.30;99.90;;;;;;5058645;28;20396;-80
2021/08/07 01:51:04;;;;;;;8.35;4.13;;;17.30;99.90;;;;;;5105288;28;20453;-81
2021/08/07 01:53:35;;;;;;;12.35;3.63;;;17.30;99.90;;;;;;5099243;28;20084;-81
2021/08/07 01:56:04;;;;;;;10.95;3.90;;;17.30;99.90;;;;;;5094655;28;20043;-80
2021/08/07 01:59:01;;;;;;;7.93;2.90;;;17.30;99.90;;;;;;5083842;28;20399;-80
2021/08/07 02:01:29;;;;;;;9.45;3.50;;;17.30;99.90;;;;;;5101147;28;20127;-81
2021/08/07 02:03:58;;;;;;;7.10;3.30;;;17.30;99.90;;;;;;5103802;28;20081;-81
2021/08/07 02:06:25;;;;;;;11.70;3.35;;;17.20;99.90;;;;;;5112873;28;20484;-80
2021/08/07 02:08:54;;;;;;;8.88;3.75;;;17.30;99.90;;;;;;5094864;28;20047;-81
2021/08/07 02:11:21;;;;;;;6.95;3.30;;;17.20;99.90;;;;;;5092963;28;20043;-80
2021/08/07 02:13:47;;;;;;;8.18;2.85;;;17.20;99.90;;;;;;5068974;28;20047;-81
2021/08/07 02:16:15;;;;;;;9.48;3.35;;;17.20;99.90;;;;;;5105885;28;20088;-80
2021/08/07 02:18:44;;;;;;;8.13;2.95;;;17.20;99.90;;;;;;5085255;28;20055;-80
2021/08/07 02:21:15;;;;;;;8.57;3.25;;;17.10;99.90;;;;;;5094882;28;20110;-81
2021/08/07 02:23:45;;;;;;;7.93;3.42;;;17.20;99.90;;;;;;5116777;28;20487;-80
2021/08/07 02:26:12;;;;;;;10.90;3.22;;;17.10;99.90;;;;;;5088689;28;20537;-80
2021/08/07 02:28:38;;;;;;;9.48;3.65;;;17.10;99.90;;;;;;5094572;28;20047;-80
2021/08/07 02:31:05;;;;;;;9.13;3.65;;;17.10;99.90;;;;;;5064940;28;20042;-81
2021/08/07 02:33:35;;;;;;;6.80;2.47;;;17.10;99.90;;;;;;5078797;28;20060;-81
2021/08/07 02:36:03;;;;;;;8.50;2.67;;;17.10;99.90;;;;;;5105418;28;20107;-80
2021/08/07 02:38:31;;;;;;;8.43;2.60;;;17.10;99.90;;;;;;5097463;28;20497;-81
2021/08/07 02:41:01;;;;;;;7.35;2.53;;;17.00;99.90;;;;;;5061874;28;20068;-81
2021/08/07 02:43:27;;;;;;;7.88;2.40;;;17.00;99.90;;;;;;5088139;28;20373;-81
2021/08/07 02:45:53;;;;;;;6.68;2.53;;;17.00;99.90;;;;;;5095774;28;20024;-81
2021/08/07 02:48:21;;;;;;;9.18;2.38;;;16.90;99.90;;;;;;5116540;28;20403;-81
2021/08/07 02:50:47;;;;;;;6.85;2.50;;;16.90;99.90;;;;;;5089793;28;20040;-80
2021/08/07 02:53:14;;;;;;;10.38;2.75;;;16.90;99.90;;;;;;5116216;28;20067;-81
2021/08/07 02:55:41;;;;;;;10.63;2.75;;;16.90;99.90;;;;;;5078711;28;20491;-80
2021/08/07 02:58:08;;;;;;;5.80;2.30;;;16.80;99.90;;;;;;5098557;28;20032;-81
2021/08/07 03:00:37;;;;;;;10.52;2.72;;;16.80;99.90;;;;;;5074433;28;20044;-81
2021/08/07 03:03:04;;;;;;;9.32;2.65;;;16.80;99.90;;;;;;5096043;28;20032;-81
2021/08/07 03:05:30;;;;;;;10.55;2.85;;;16.80;99.90;;;;;;5098280;28;20040;-80
2021/08/07 03:07:56;;;;;;;9.70;3.03;;;16.80;99.90;;;;;;5115786;28;20093;-80
2021/08/07 03:10:24;;;;;;;8.02;2.70;;;16.80;99.90;;;;;;5097643;28;20043;-80
2021/08/07 03:12:52;;;;;;;8.32;2.30;;;16.80;99.90;;;;;;5087831;28;20032;-80
2021/08/07 03:15:23;;;;;;;8.02;2.60;;;16.70;99.90;;;;;;5098100;28;20032;-81
2021/08/07 03:17:50;;;;;;;8.82;2.42;;;16.70;99.90;;;;;;5096211;28;20059;-80
2021/08/07 03:20:19;;;;;;;6.20;2.40;;;16.70;99.90;;;;;;5107877;28;20084;-80
2021/08/07 03:22:45;;;;;;;8.48;2.58;;;16.70;99.90;;;;;;5116225;28;20055;-81
2021/08/07 03:25:12;;;;;;;6.85;2.38;;;16.70;99.90;;;;;;5115744;28;20043;-80
2021/08/07 03:27:39;;;;;;;7.93;2.47;;;16.70;99.90;;;;;;5097969;28;20119;-81
2021/08/07 03:30:06;;;;;;;7.78;2.42;;;16.60;99.90;;;;;;5097164;28;20051;-80
2021/08/07 03:32:32;;;;;;;8.07;2.88;;;16.50;99.90;;;;;;5081916;28;20059;-87
2021/08/07 03:34:58;;;;;;;6.95;2.67;;;16.60;99.90;;;;;;5096490;28;20051;-87
2021/08/07 03:37:23;;;;;;;9.38;2.90;;;16.60;99.90;;;;;;5079975;28;20472;-87
2021/08/07 03:39:49;;;;;;;5.10;2.40;;;16.50;99.90;;;;;;5091534;28;20043;-88
2021/08/07 03:42:17;;;;;;;7.22;3.05;;;16.50;99.90;;;;;;5077301;28;20063;-88
2021/08/07 03:44:44;;;;;;;11.07;2.88;;;16.60;99.90;;;;;;5081258;28;20067;-87
2021/08/07 03:47:14;;;;;;;9.15;2.63;;;16.50;99.90;;;;;;5078776;28;20510;-88
2021/08/07 03:49:43;;;;;;;6.95;2.80;;;16.50;99.90;;;;;;5092113;28;20055;-88
2021/08/07 03:52:09;;;;;;;8.02;2.85;;;16.50;99.90;;;;;;5055001;28;20044;-87
2021/08/07 03:54:35;;;;;;;9.43;2.97;;;16.40;99.90;;;;;;5113278;28;20039;-88
2021/08/07 03:57:01;;;;;;;9.50;3.03;;;16.40;99.90;;;;;;5115667;28;20118;-88
2021/08/07 03:59:27;;;;;;;7.07;2.78;;;16.40;99.90;;;;;;5073417;28;20502;-88
2021/08/07 04:01:53;;;;;;;8.23;2.90;;;16.40;99.90;;;;;;5097736;28;20032;-88
2021/08/07 04:04:19;;;;;;;12.15;2.97;;;16.40;99.90;;;;;;5115581;28;20052;-88
2021/08/07 04:06:44;;;;;;;8.65;3.28;;;16.40;99.90;;;;;;5077140;28;20456;-88
2021/08/07 04:09:10;;;;;;;7.68;3.05;;;16.40;99.90;;;;;;5106047;28;20032;-87
2021/08/07 04:11:36;;;;;;;6.63;2.40;;;16.30;99.90;;;;;;5076884;28;20115;-87
2021/08/07 04:14:02;;;;;;;8.23;2.55;;;16.30;99.90;;;;;;5060530;28;20480;-88
2021/08/07 04:16:29;;;;;;;8.32;2.53;;;16.30;99.90;;;;;;5058248;28;20039;-86
2021/08/07 04:18:54;;;;;;;9.35;2.88;;;16.30;99.90;;;;;;5070119;28;20511;-87
2021/08/07 04:21:20;;;;;;;10.25;3.30;;;16.20;99.90;;;;;;5074787;28;20035;-88
2021/08/07 04:23:46;;;;;;;7.80;3.10;;;16.20;99.90;;;;;;5115347;28;20055;-87
2021/08/07 04:26:13;;;;;;;10.57;3.35;;;16.30;99.90;;;;;;5095301;28;20032;-87
2021/08/07 04:28:39;;;;;;;8.02;3.15;;;16.20;99.90;;;;;;5113310;28;20042;-87
2021/08/07 04:31:06;;;;;;;11.63;3.22;;;16.20;99.90;;;;;;5076691;28;20051;-88
2021/08/07 04:33:33;;;;;;;11.52;2.80;;;16.20;99.90;;;;;;5094964;28;20075;-86
2021/08/07 04:36:03;;;;;;;10.38;3.13;;;16.20;99.90;;;;;;5097249;28;20036;-85
2021/08/07 04:38:32;;;;;;;8.10;2.92;;;16.20;99.90;;;;;;5083768;28;20075;-88
2021/08/07 04:40:58;;;;;;;7.50;3.05;;;16.10;99.90;;;;;;5094843;28;20106;-87
2021/08/07 04:43:27;;;;;;;10.00;2.90;;;16.20;99.90;;;;;;5092966;28;20044;-87
2021/08/07 04:45:53;;;;;;;11.85;2.90;;;16.50;99.90;;;;;;5076115;28;20121;-87
2021/08/07 04:48:19;;;;;;;10.07;2.85;;;16.20;99.90;;;;;;5092235;28;20464;-87
2021/08/07 04:50:45;;;;;;;8.50;3.25;;;16.10;99.90;;;;;;5114315;28;20396;-86
2021/08/07 04:53:13;;;;;;;9.10;3.10;;;16.10;99.90;;;;;;5088007;28;20044;-87
2021/08/07 04:55:39;;;;;;;8.13;3.20;;;16.10;99.90;;;;;;5094269;28;20088;-87
2021/08/07 04:58:05;;;;;;;8.13;2.85;;;16.10;99.90;;;;;;5083122;28;20040;-87
2021/08/07 05:00:31;;;;;;;8.50;3.13;;;16.20;99.90;;;;;;5072893;28;20046;-87
2021/08/07 05:02:59;;;;;;;10.07;2.67;;;16.20;99.90;;;;;;5085289;28;20542;-80
2021/08/07 05:05:25;;;;;;;7.93;3.00;;;16.30;99.90;;;;;;5095854;28;20036;-80
2021/08/07 05:07:50;;;;;;;10.80;3.35;;;16.30;99.90;;;;;;5096147;28;20110;-80
2021/08/07 05:10:17;;;;;;;10.93;3.75;;;16.30;99.90;;;;;;5096195;28;20031;-80
2021/08/07 05:12:43;;;;;;;6.60;2.60;;;16.30;99.90;;;;;;5092089;28;20467;-80
2021/08/07 05:15:10;;;;;;;11.85;3.13;;;16.20;99.90;;;;;;5075433;28;20040;-80
2021/08/07 05:17:36;;;;;;;11.07;4.07;;;16.40;99.90;;;;;;5063598;28;20060;-80
2021/08/07 05:20:02;;;;;;;9.02;3.10;;;16.40;99.90;;;;;;5094714;28;20124;-80
2021/08/07 05:22:28;;;;;;;11.90;3.03;;;16.40;99.90;;;;;;5075346;28;20447;-80
2021/08/07 05:24:54;;;;;;;12.80;3.10;;;16.40;99.90;;;;;;5110965;28;20050;-80
2021/08/07 05:27:20;;;;;;;9.65;3.03;;;16.50;99.90;;;;;;5107350;28;20032;-80
2021/08/07 05:29:46;;;;;;;14.48;4.40;;;16.50;99.90;;;;;;5112745;28;20391;-80
2021/08/07 05:32:15;;;;;;;14.10;3.42;;;16.60;99.90;;;;;;5113527;28;20110;-80
2021/08/07 05:34:41;;;;;;;8.80;3.45;;;16.60;99.90;;;;;;5081608;28;20052;-80
2021/08/07 05:37:07;;;;;;;8.43;2.90;;;16.50;99.90;;;;;;5090799;28;20456;-80
2021/08/07 05:39:33;;;;;;;10.68;2.80;;;16.50;99.90;;;;;;5083187;28;20420;-80
2021/08/07 05:41:59;;;;;;;8.68;3.15;;;16.50;99.90;;;;;;5113412;28;20062;-80
2021/08/07 05:44:25;;;;;;;9.85;3.25;;;16.50;99.90;;;;;;5076827;28;20047;-80
2021/08/07 05:46:51;;;;;;;9.90;3.13;;;16.50;99.90;;;;;;5077882;28;20036;-80
2021/08/07 05:49:16;;;;;;;15.43;3.60;;;16.50;99.90;;;;;;5111324;28;20092;-80
2021/08/07 05:51:42;;;;;;;11.45;3.50;;;16.60;99.90;;;;;;5062680;28;20123;-80
2021/08/07 05:54:08;;;;;;;15.63;3.40;;;16.60;99.90;;;;;;5095996;28;20469;-80
2021/08/07 05:56:34;;;;;;;12.07;3.30;;;16.50;99.90;;;;;;5094321;28;20058;-80
2021/08/07 05:59:00;;;;;;;11.85;3.33;;;16.50;99.90;;;;;;5085489;28;20032;-80
2021/08/07 06:01:26;;;;;;;14.07;3.40;;;16.50;99.90;;;;;;5113215;28;20043;-80
2021/08/07 06:03:52;;;;;;;11.15;3.38;;;16.50;99.90;;;;;;5061236;28;20583;-80
2021/08/07 06:06:20;;;;;;;13.27;3.83;;;16.50;99.90;;;;;;5074632;28;20033;-80
2021/08/07 06:08:46;;;;;;;11.68;3.50;;;16.50;99.90;;;;;;5083516;28;20032;-80
2021/08/07 06:11:12;;;;;;;13.00;3.15;;;16.50;99.90;;;;;;5077166;28;20398;-80
2021/08/07 06:13:37;;;;;;;8.90;3.35;;;16.70;99.90;;;;;;5111215;28;20039;-81
2021/08/07 06:16:04;;;;;;;12.82;3.70;;;16.70;99.90;;;;;;5094695;28;20436;-81
2021/08/07 06:18:30;;;;;;;10.88;3.35;;;16.80;99.90;;;;;;5112870;28;20039;-81
2021/08/07 06:20:56;;;;;;;11.52;3.38;;;16.90;99.90;;;;;;5112983;28;20395;-80
2021/08/07 06:23:22;;;;;;;12.07;3.60;;;17.00;99.90;;;;;;5062990;28;20036;-79
2021/08/07 06:25:48;;;;;;;14.40;3.35;;;17.10;99.90;;;;;;5108884;28;20032;-80
2021/08/07 06:28:17;;;;;;;11.57;3.45;;;17.10;99.90;;;;;;5081017;28;20040;-81
2021/08/07 06:30:45;;;;;;;9.73;3.05;;;17.20;99.90;;;;;;5111998;28;20040;-80
2021/08/07 06:33:13;;;;;;;10.38;3.55;;;17.20;99.90;;;;;;5077974;28;20456;-80
2021/08/07 06:35:39;;;;;;;10.80;3.35;;;17.10;99.90;;;;;;5093198;28;20044;-81
2021/08/07 06:38:07;;;;;;;9.90;3.10;;;17.20;99.90;;;;;;5088884;28;20028;-81
2021/08/07 06:40:34;;;;;;;12.20;3.33;;;17.20;99.90;;;;;;5091311;28;20410;-80
2021/08/07 06:43:00;;;;;;;11.00;2.95;;;17.10;99.90;;;;;;5069856;28;20034;-80
2021/08/07 06:45:26;;;;;;;13.38;3.72;;;17.20;99.90;;;;;;5055661;28;20107;-81
2021/08/07 06:47:54;;;;;;;8.80;3.03;;;17.10;99.90;;;;;;5094653;28;20454;-78
2021/08/07 06:50:20;;;;;;;10.25;2.65;;;17.10;99.90;;;;;;5112686;28;20433;-79
2021/08/07 06:52:46;;;;;;;11.07;3.35;;;17.10;99.90;;;;;;5110891;28;20034;-78
2021/08/07 06:55:12;;;;;;;11.68;3.17;;;17.10;99.90;;;;;;5068429;28;20403;-79
2021/08/07 06:57:41;;;;;;;13.52;3.25;;;17.20;99.90;;;;;;5071005;28;20042;-79
2021/08/07 07:00:13;;;;;;;8.52;2.65;;;17.20;99.90;;;;;;5088670;28;20027;-78
2021/08/07 07:02:40;;;;;;;14.15;3.20;;;17.20;99.90;;;;;;5108664;28;20039;-78
2021/08/07 07:05:06;;;;;;;11.48;2.90;;;17.20;99.90;;;;;;5094444;28;20476;-78
2021/08/07 07:07:32;;;;;;;8.88;3.05;;;17.20;99.90;;;;;;5112754;28;20050;-79
2021/08/07 07:09:58;;;;;;;12.52;2.63;;;17.20;99.90;;;;;;5098189;28;20031;-79
2021/08/07 07:12:23;;;;;;;13.40;2.83;;;17.30;99.90;;;;;;5077472;28;20089;-79
2021/08/07 07:14:53;;;;;;;12.20;2.92;;;17.30;99.90;;;;;;5095909;28;20056;-78
2021/08/07 07:17:18;;;;;;;14.05;3.05;;;17.20;99.90;;;;;;5076789;28;20115;-78
2021/08/07 07:19:44;;;;;;;9.00;2.70;;;17.20;99.90;;;;;;5077146;28;20472;-79
2021/08/07 07:22:13;;;;;;;12.75;2.95;;;17.20;99.90;;;;;;5081571;28;20089;-79
2021/08/07 07:24:39;;;;;;;9.95;2.80;;;17.30;99.90;;;;;;5052672;28;20452;-79
2021/08/07 07:27:05;;;;;;;12.38;2.88;;;17.30;99.90;;;;;;5095121;28;20042;-79
2021/08/07 07:29:31;;;;;;;9.15;2.58;;;17.30;99.90;;;;;;5077218;28;20043;-78
2021/08/07 07:31:57;;;;;;;12.88;2.92;;;17.30;99.90;;;;;;5072368;28;20115;-79
2021/08/07 07:34:23;;;;;;;13.88;3.25;;;17.30;99.90;;;;;;5074822;28;20052;-78
2021/08/07 07:36:49;;;;;;;11.68;3.10;;;17.30;99.90;;;;;;5090974;28;20043;-79
2021/08/07 07:39:14;;;;;;;12.02;3.05;;;17.30;99.90;;;;;;5115521;28;20373;-78
2021/08/07 07:41:40;;;;;;;18.13;3.20;;;17.30;99.90;;;;;;5097659;28;20027;-79
2021/08/07 07:44:06;;;;;;;12.65;3.60;;;17.30;99.90;;;;;;5113016;28;20028;-79
2021/08/07 07:46:34;;;;;;;8.68;2.92;;;17.30;99.90;;;;;;5086851;28;20032;-78
2021/08/07 07:49:01;;;;;;;10.02;3.28;;;17.40;99.90;;;;;;5085290;28;20043;-78
2021/08/07 07:51:27;;;;;;;12.43;3.42;;;17.40;99.90;;;;;;5076887;28;20024;-79
2021/08/07 07:53:59;;;;;;;7.28;2.72;;;17.50;99.90;;;;;;5078700;28;20039;-80
2021/08/07 07:56:25;;;;;;;10.75;3.42;;;17.50;99.90;;;;;;5097593;28;20028;-81
2021/08/07 07:58:51;;;;;;;13.43;3.47;;;17.50;99.90;;;;;;5115027;28;20047;-81
2021/08/07 08:01:18;;;;;;;11.52;2.90;;;17.50;99.90;;;;;;5096970;28;20112;-81
2021/08/07 08:03:46;;;;;;;10.93;2.67;;;17.60;99.90;;;;;;5111902;28;20043;-82
2021/08/07 08:06:12;;;;;;;13.85;2.70;;;17.70;99.90;;;;;;5096865;28;20043;-82
2021/08/07 08:08:38;;;;;;;11.82;2.83;;;17.70;99.90;;;;;;5091680;28;20039;-82
2021/08/07 08:11:04;;;;;;;13.15;3.13;;;17.80;99.90;;;;;;5095826;28;20122;-82
2021/08/07 08:13:33;;;;;;;9.70;3.03;;;17.70;99.90;;;;;;5112720;28;20097;-81
2021/08/07 08:15:59;;;;;;;10.55;3.20;;;17.90;99.90;;;;;;5089938;28;20032;-81
2021/08/07 08:18:27;;;;;;;9.90;2.90;;;17.90;99.90;;;;;;5094830;28;20126;-81
2021/08/07 08:20:56;;;;;;;12.68;2.80;;;18.00;99.90;;;;;;5089609;28;20111;-81
2021/08/07 08:23:24;;;;;;;7.53;2.75;;;18.00;99.90;;;;;;5113852;28;20035;-81
2021/08/07 08:25:50;;;;;;;10.38;2.83;;;18.00;99.90;;;;;;5090071;28;20066;-82
2021/08/07 08:28:18;;;;;;;10.70;2.70;;;18.10;99.90;;;;;;5095269;28;20040;-80
2021/08/07 08:30:44;;;;;;;10.73;2.50;;;18.20;99.90;;;;;;5075962;28;20067;-80
2021/08/07 08:33:15;;;;;;;7.65;2.53;;;18.20;99.90;;;;;;5100061;28;20052;-80
2021/08/07 08:35:42;;;;;;;10.70;2.58;;;18.40;99.90;;;;;;5094399;28;20055;-80
2021/08/07 08:38:12;;;;;;;14.40;2.53;;;18.30;99.90;;;;;;5111137;28;20042;-81
2021/08/07 08:40:38;;;;;;;9.60;2.50;;;18.30;99.90;;;;;;5096154;28;20076;-81
2021/08/07 08:43:04;;;;;;;7.93;2.30;;;18.40;99.90;;;;;;5088409;28;20032;-81
2021/08/07 08:45:33;;;;;;;8.48;2.17;;;18.40;99.90;;;;;;5092008;28;20035;-81
2021/08/07 08:48:02;;;;;;;11.77;2.88;;;18.50;99.90;;;;;;5096576;28;20040;-81
2021/08/07 08:50:28;;;;;;;7.50;2.03;;;18.60;99.90;;;;;;5101816;28;20028;-81
2021/08/07 08:53:02;;;;;;;9.63;2.25;;;18.60;99.90;;;;;;5100383;28;20035;-81
2021/08/07 08:55:39;;;;;;;10.20;2.15;;;18.70;99.90;;;;;;5091546;28;20043;-81
2021/08/07 08:58:05;;;;;;;8.48;2.17;;;18.70;99.90;;;;;;5081603;28;20036;-81
2021/08/07 09:00:33;;;;;;;11.05;2.28;;;18.80;99.90;;;;;;5063048;28;20044;-81
2021/08/07 09:02:59;;;;;;;8.93;2.20;;;18.90;99.90;;;;;;5094957;28;20051;-81
2021/08/07 09:05:27;;;;;;;6.38;2.00;;;19.10;99.90;;;;;;5068808;28;20032;-79
2021/08/07 09:07:53;;;;;;;12.00;3.00;;;19.20;99.90;;;;;;5059045;28;20044;-82
2021/08/07 09:10:23;;;;;;;11.52;2.53;;;19.20;99.90;;;;;;5085056;28;20151;-77
2021/08/07 09:13:03;;;;;;;7.55;2.25;;;19.20;99.90;;;;;;5091937;28;20065;-80
2021/08/07 09:15:38;;;;;;;9.75;2.03;;;19.30;99.90;;;;;;5107461;28;20039;-80
2021/08/07 09:18:10;;;;;;;6.65;1.80;;;19.40;99.90;;;;;;5089543;28;20399;-79
2021/08/07 09:20:37;;;;;;;8.02;1.83;;;19.40;99.90;;;;;;5113714;28;20036;-79
2021/08/07 09:23:03;;;;;;;8.13;2.08;;;19.50;99.90;;;;;;5093562;28;20043;-79
2021/08/07 09:25:37;;;;;;;7.00;1.80;;;19.50;99.90;;;;;;5077146;28;20438;-79
2021/08/07 09:28:04;;;;;;;8.20;2.00;;;19.50;99.90;;;;;;5105009;28;20043;-79
2021/08/07 09:30:35;;;;;;;5.47;1.77;;;19.60;99.90;;;;;;5093437;28;20489;-79
2021/08/07 09:33:05;;;;;;;8.23;2.13;;;19.60;99.90;;;;;;5089505;28;20044;-79
2021/08/07 09:35:32;;;;;;;9.57;2.10;;;19.60;99.90;;;;;;5102361;28;20024;-78
2021/08/07 09:38:22;;;;;;;6.47;2.00;;;19.60;99.90;;;;;;5095337;28;20032;-77
2021/08/07 09:40:54;;;;;;;10.82;1.90;;;19.70;99.90;;;;;;5113055;27;20060;-81
2021/08/07 09:43:28;;;;;;;7.05;1.63;;;19.70;99.90;;;;;;5092348;28;20535;-81
2021/08/07 09:46:03;;;;;;;6.88;1.52;;;19.80;99.90;;;;;;5110887;28;20023;-81
2021/08/07 09:48:46;;;;;;;6.47;1.77;;;19.80;99.90;;;;;;5104505;28;20572;-81
2021/08/07 09:51:25;;;;;;;6.03;1.60;;;19.80;99.90;;;;;;5107784;28;20031;-82
2021/08/07 09:54:05;;;;;;;6.82;1.70;;;19.80;99.90;;;;;;5092075;28;20039;-82
2021/08/07 09:56:49;;;;;;;5.72;1.63;;;19.80;99.90;;;;;;5093261;28;20031;-83
2021/08/07 09:59:16;;;;;;;7.20;1.77;;;19.90;99.90;;;;;;5092751;28;20054;-83
2021/08/07 10:01:43;;;;;;;4.47;1.77;;;20.00;99.90;;;;;;5093248;28;20031;-83
2021/08/07 10:04:11;;;;;;;6.18;1.75;;;20.00;99.90;;;;;;5106039;28;20132;-82
2021/08/07 10:07:30;;;;;;;5.43;1.45;;;20.10;99.90;;;;;;5096104;28;20058;-87
2021/08/07 10:10:35;;;;;;;5.70;1.30;;;20.10;99.90;;;;;;5018329;28;20107;-85
2021/08/07 10:13:16;;;;;;;7.05;1.40;;;20.20;99.90;;;;;;5083982;28;20052;-86
2021/08/07 10:15:50;;;;;;;8.07;1.65;;;20.20;99.90;;;;;;5022936;28;20685;-83
2021/08/07 10:22:25;;;;;;;6.03;1.52;;;20.30;99.90;;;;;;5100629;28;20384;-85
2021/08/07 10:24:59;;;;;;;4.70;1.52;;;20.30;99.90;;;;;;5090065;28;20060;-86
2021/08/07 10:27:39;;;;;;;8.43;1.92;;;20.30;99.90;;;;;;5063993;28;20042;-88
2021/08/07 10:30:24;;;;;;;4.88;1.60;;;20.30;99.90;;;;;;5079114;28;20051;-83
2021/08/07 10:32:56;;;;;;;4.47;1.20;;;20.40;99.90;;;;;;5086383;28;20118;-85
2021/08/07 10:35:52;;;;;;;3.63;1.70;;;20.60;99.90;;;;;;5071191;28;20052;-83
2021/08/07 10:38:22;;;;;;;7.30;1.60;;;20.60;99.90;;;;;;5092074;28;20043;-82
2021/08/07 10:40:49;;;;;;;3.63;1.30;;;20.70;99.90;;;;;;5070914;28;20044;-81
2021/08/07 10:43:24;;;;;;;4.47;1.40;;;20.60;99.90;;;;;;5102818;28;20031;-84
2021/08/07 10:45:50;;;;;;;4.22;1.10;;;20.40;99.90;;;;;;5091246;28;20036;-83
2021/08/07 10:48:43;;;;;;;6.30;1.15;;;20.60;99.90;;;;;;5097258;28;20080;-77
2021/08/07 10:51:24;;;;;;;4.68;1.55;;;20.60;99.90;;;;;;5088101;28;20028;-76
2021/08/07 10:54:37;;;;;;;;;;;;;;;;;;;;;
2021/08/07 10:57:42;;;;;;;5.40;1.42;;;20.70;99.90;;;;;;5103943;28;20730;-79
2021/08/07 11:00:30;;;;;;;4.53;1.08;;;20.70;99.90;;;;;;5108994;28;20403;-79
2021/08/07 11:03:14;;;;;;;3.80;0.90;;;20.80;99.90;;;;;;5089533;28;20027;-76
2021/08/07 11:05:53;;;;;;;2.75;1.10;;;20.70;99.90;;;;;;5113854;28;20046;-78
2021/08/07 11:08:19;;;;;;;5.07;1.20;;;20.40;99.90;;;;;;5102998;28;20065;-78
2021/08/07 11:10:46;;;;;;;4.65;1.02;;;20.80;99.90;;;;;;5081116;28;20044;-78
2021/08/07 11:13:26;;;;;;;5.47;1.20;;;20.80;99.90;;;;;;5095675;28;20031;-77
2021/08/07 11:16:19;;;;;;;4.88;1.25;;;20.90;99.90;;;;;;5083365;28;20040;-78
2021/08/07 11:18:45;;;;;;;3.55;0.95;;;20.90;99.90;;;;;;5088137;28;20156;-78
2021/08/07 11:21:52;;;;;;;4.43;1.10;;;20.90;99.90;;;;;;5116010;28;20531;-78
2021/08/07 11:24:47;;;;;;;5.40;1.30;;;20.80;99.90;;;;;;5075031;28;20052;-78
2021/08/07 11:27:16;;;;;;;3.63;1.00;;;20.80;99.90;;;;;;5089578;28;20058;-78
2021/08/07 11:30:17;;;;;;;3.28;0.90;;;20.90;99.90;;;;;;5112554;28;20107;-75
2021/08/07 11:33:09;;;;;;;4.57;1.20;;;21.10;99.90;;;;;;5104211;28;20035;-79
2021/08/07 11:35:38;;;;;;;3.55;1.30;;;21.20;99.90;;;;;;5112593;28;20061;-79
2021/08/07 11:38:17;;;;;;;7.00;1.40;;;21.30;99.90;;;;;;5097353;28;20047;-78
2021/08/07 11:40:44;;;;;;;3.25;1.10;;;21.30;99.90;;;;;;5096984;28;20108;-79
2021/08/07 11:43:17;;;;;;;4.45;1.10;;;21.30;99.90;;;;;;5109046;28;20027;-79
2021/08/07 11:45:44;;;;;;;2.63;1.00;;;21.30;99.90;;;;;;5111776;28;20031;-79
2021/08/07 11:48:22;;;;;;;2.65;1.20;;;21.30;99.90;;;;;;5095865;28;20040;-79
2021/08/07 11:50:48;;;;;;;3.33;0.98;;;21.40;99.90;;;;;;5093830;28;20036;-79
2021/08/07 11:53:24;;;;;;;7.25;1.52;;;21.30;99.90;;;;;;5115308;28;20549;-80
2021/08/07 11:56:03;;;;;;;3.85;1.30;;;21.30;99.90;;;;;;5112486;28;20475;-78
2021/08/07 11:58:30;;;;;;;3.92;1.40;;;21.30;99.90;;;;;;5104625;28;20051;-78
2021/08/07 12:01:00;;;;;;;4.50;1.23;;;21.30;99.90;;;;;;5108401;28;20070;-78
2021/08/07 12:03:27;;;;;;;5.05;1.52;;;21.30;99.90;;;;;;5097398;28;20519;-78
2021/08/07 12:05:57;;;;;;;5.07;1.48;;;21.40;99.90;;;;;;5052435;28;20130;-76
2021/08/07 12:08:34;;;;;;;4.35;1.35;;;21.40;99.90;;;;;;5059689;28;20040;-77
2021/08/07 12:11:07;;;;;;;4.30;1.23;;;21.50;99.90;;;;;;5091480;28;20039;-78
2021/08/07 12:13:41;;;;;;;5.15;1.20;;;21.60;99.90;;;;;;5088296;28;20039;-78
2021/08/07 12:16:18;;;;;;;4.18;1.20;;;21.60;99.90;;;;;;5109882;28;20392;-78
2021/08/07 12:18:47;;;;;;;5.70;1.00;;;21.60;99.90;;;;;;5103399;28;20038;-80
2021/08/07 12:21:30;;;;;;;3.50;1.30;;;21.50;99.90;;;;;;5092273;28;20484;-78
2021/08/07 12:24:01;;;;;;;4.90;1.27;;;21.50;99.90;;;;;;5090043;28;20040;-83
2021/08/07 12:26:51;;;;;;;5.53;1.45;;;21.50;99.90;;;;;;5075274;28;20071;-83
2021/08/07 12:29:35;;;;;;;7.82;1.40;;;21.50;99.90;;;;;;5074202;28;20068;-82
2021/08/07 12:32:03;;;;;;;3.53;1.40;;;21.60;99.90;;;;;;5092068;28;20376;-80
2021/08/07 12:34:32;;;;;;;3.72;1.25;;;21.50;99.90;;;;;;5086314;28;20564;-80
2021/08/07 12:37:21;;;;;;;3.88;1.63;;;21.50;99.90;;;;;;5095777;28;20036;-81
2021/08/07 12:40:20;;;;;;;1.75;1.10;;;21.30;99.90;;;;;;5080477;28;20055;-81
2021/08/07 12:42:46;;;;;;;3.35;1.15;;;21.30;99.90;;;;;;5062668;28;21794;-80
2021/08/07 12:45:19;;;;;;;3.63;1.30;;;21.20;99.90;;;;;;5087844;28;20040;-80
2021/08/07 12:47:45;;;;;;;4.32;1.20;;;21.10;99.90;;;;;;5093808;28;20413;-81
2021/08/07 12:50:33;;;;;;;5.70;1.17;;;21.10;99.90;;;;;;5051041;28;20048;-81
2021/08/07 12:53:06;;;;;;;3.88;1.67;;;21.10;99.90;;;;;;5079104;28;20036;-81
2021/08/07 12:55:54;;;;;;;4.65;1.20;;;21.00;99.90;;;;;;5072038;28;20432;-76
2021/08/07 13:02:19;;;;;;;4.68;1.40;;;20.90;99.90;;;;;;5113648;28;20034;-89
2021/08/07 13:05:12;;;;;;;3.42;1.20;;;20.90;99.90;;;;;;5079007;28;20036;-87
2021/08/07 13:12:35;;;;;;;2.95;1.05;;;21.10;99.90;;;;;;4955780;28;20093;-84
2021/08/07 13:16:20;;;;;;;;;;;;;;;;;;;;;